createdAt,value
2022-11-19T00:03:05.264Z,4.20
2022-11-19T00:08:08.245Z,3.83
2022-11-19T00:13:14.077Z,4.00
2022-11-19T00:18:16.806Z,3.83
2022-11-19T00:23:19.731Z,3.67
2022-11-19T00:28:23.820Z,3.90
2022-11-19T00:33:26.509Z,3.67
2022-11-19T00:38:30.235Z,3.90
2022-11-19T00:43:50.043Z,3.40
2022-11-19T00:48:54.383Z,2.97
2022-11-19T00:53:57.475Z,4.00
2022-11-19T00:59:01.595Z,3.33
2022-11-19T01:04:04.365Z,4.07
2022-11-19T01:09:07.516Z,3.40
2022-11-19T01:14:11.575Z,3.53
2022-11-19T01:19:16.461Z,3.73
2022-11-19T01:24:19.423Z,3.03
2022-11-19T01:29:23.723Z,4.47
2022-11-19T01:34:26.479Z,3.93
2022-11-19T01:39:29.253Z,3.40
2022-11-19T01:45:00.495Z,3.67
2022-11-19T01:50:03.684Z,3.77
2022-11-19T01:55:08.088Z,3.67
2022-11-19T02:00:14.215Z,3.60
2022-11-19T02:05:17.213Z,3.70
2022-11-19T02:10:20.475Z,3.60
2022-11-19T02:15:33.498Z,3.67
2022-11-19T02:20:47.108Z,3.73
2022-11-19T02:26:04.251Z,3.57
2022-11-19T02:31:12.079Z,3.57
2022-11-19T02:36:19.970Z,3.33
2022-11-19T02:41:36.409Z,3.47
2022-11-19T02:46:40.880Z,3.50
2022-11-19T02:51:44.162Z,3.33
2022-11-19T02:56:51.329Z,3.43
2022-11-19T03:02:13.305Z,3.03
2022-11-19T03:07:19.405Z,3.07
2022-11-19T03:12:24.472Z,3.17
2022-11-19T03:17:31.670Z,3.40
2022-11-19T03:22:36.108Z,3.23
2022-11-19T03:27:41.867Z,3.77
2022-11-19T03:32:48.658Z,3.50
2022-11-19T03:37:54.270Z,3.30
2022-11-19T03:42:57.204Z,3.43
2022-11-19T03:48:02.316Z,3.53
2022-11-19T03:53:05.366Z,3.93
2022-11-19T03:58:08.831Z,3.17
2022-11-19T04:03:12.888Z,3.17
2022-11-19T04:08:15.646Z,3.30
2022-11-19T04:13:18.484Z,3.50
2022-11-19T04:18:22.531Z,3.43
2022-11-19T04:23:25.246Z,2.80
2022-11-19T04:28:27.966Z,3.37
2022-11-19T04:33:32.033Z,3.20
2022-11-19T04:38:35.472Z,3.50
2022-11-19T04:43:38.201Z,4.03
2022-11-19T04:48:42.242Z,4.03
2022-11-19T04:53:45.115Z,3.50
2022-11-19T04:58:47.867Z,4.13
2022-11-19T05:03:51.906Z,4.00
2022-11-19T05:08:54.631Z,3.40
2022-11-19T05:13:57.413Z,3.20
2022-11-19T05:19:01.478Z,3.43
2022-11-19T05:24:04.431Z,3.47
2022-11-19T05:29:07.136Z,3.33
2022-11-19T05:34:11.196Z,3.60
2022-11-19T05:39:20.247Z,4.20
2022-11-19T05:44:24.509Z,3.53
2022-11-19T05:49:28.617Z,4.20
2022-11-19T05:54:31.491Z,3.83
2022-11-19T05:59:34.275Z,3.60
2022-11-19T06:04:38.502Z,4.27
2022-11-19T06:09:41.411Z,3.80
2022-11-19T06:14:44.134Z,3.30
2022-11-19T06:19:48.301Z,4.00
2022-11-19T06:24:51.072Z,3.17
2022-11-19T06:29:56.349Z,3.30
2022-11-19T06:35:00.592Z,3.33
2022-11-19T06:40:03.316Z,3.70
2022-11-19T06:45:09.319Z,4.13
2022-11-19T06:50:13.416Z,4.00
2022-11-19T06:55:16.667Z,3.97
2022-11-19T07:00:19.776Z,3.63
2022-11-19T07:05:23.812Z,4.17
2022-11-19T07:10:26.532Z,3.53
2022-11-19T07:15:29.383Z,3.83
2022-11-19T07:20:33.997Z,3.33
2022-11-19T07:25:36.802Z,4.07
2022-11-19T07:30:39.511Z,3.67
2022-11-19T07:35:43.604Z,3.30
2022-11-19T07:40:53.699Z,3.40
2022-11-19T07:45:56.392Z,3.03
2022-11-19T07:51:00.456Z,4.73
2022-11-19T07:56:03.588Z,3.60
2022-11-19T08:01:10.390Z,3.93
2022-11-19T08:06:15.418Z,4.20
2022-11-19T08:11:18.877Z,4.43
2022-11-19T08:16:35.922Z,4.87
2022-11-19T08:21:43.588Z,4.77
2022-11-19T08:26:46.954Z,4.93
2022-11-19T08:31:50.834Z,4.80
2022-11-19T08:36:54.912Z,5.60
2022-11-19T08:42:15.168Z,5.10
2022-11-19T08:47:18.098Z,4.37
2022-11-19T08:52:22.192Z,3.80
2022-11-19T08:57:24.917Z,4.20
2022-11-19T09:02:27.722Z,4.67
2022-11-19T09:07:31.917Z,5.00
2022-11-19T09:12:34.629Z,4.43
2022-11-19T09:17:41.137Z,4.87
2022-11-19T09:22:47.879Z,4.60
2022-11-19T09:27:50.633Z,4.50
2022-11-19T09:32:53.439Z,5.30
2022-11-19T09:37:57.497Z,5.17
2022-11-19T09:43:08.499Z,4.37
2022-11-19T09:48:20.468Z,5.27
2022-11-19T09:53:24.671Z,5.70
2022-11-19T09:58:33.222Z,5.33
2022-11-19T10:03:36.015Z,4.70
2022-11-19T10:08:53.781Z,5.70
2022-11-19T10:14:02.792Z,5.40
2022-11-19T10:19:13.133Z,5.57
2022-11-19T10:24:23.602Z,5.57
2022-11-19T10:29:29.705Z,5.77
2022-11-19T10:34:34.830Z,7.43
2022-11-19T10:39:41.604Z,7.13
2022-11-19T10:44:47.994Z,6.63
2022-11-19T10:49:53.126Z,6.27
2022-11-19T10:55:01.180Z,6.40
2022-11-19T11:00:04.856Z,6.70
2022-11-19T11:05:12.579Z,5.07
2022-11-19T11:10:37.736Z,6.23
2022-11-19T11:15:45.740Z,5.30
2022-11-19T11:20:50.472Z,5.37
2022-11-19T11:26:01.406Z,5.50
2022-11-19T11:31:05.816Z,5.63
2022-11-19T11:36:10.316Z,5.03
2022-11-19T11:42:04.455Z,4.47
2022-11-19T11:46:44.228Z,4.30
2022-11-19T11:51:47.136Z,3.33
2022-11-19T11:56:51.459Z,3.90
2022-11-19T12:01:55.358Z,4.07
2022-11-19T12:07:08.679Z,3.83
2022-11-19T12:12:21.353Z,4.90
2022-11-19T12:17:35.449Z,4.25
2022-11-19T12:22:48.778Z,5.15
2022-11-19T12:28:02.222Z,4.32
2022-11-19T12:33:17.526Z,4.43
2022-11-19T12:38:26.381Z,4.28
2022-11-19T12:43:42.676Z,4.13
2022-11-19T12:48:55.163Z,3.13
2022-11-19T12:54:15.179Z,3.72
2022-11-19T12:59:32.606Z,3.40
2022-11-19T13:04:38.401Z,3.75
2022-11-19T13:09:44.780Z,3.08
2022-11-19T13:14:55.103Z,6.75
2022-11-19T13:20:04.338Z,6.43
2022-11-19T13:25:15.648Z,3.50
2022-11-19T13:30:21.514Z,2.92
2022-11-19T13:35:26.467Z,2.87
2022-11-19T13:40:32.913Z,3.13
2022-11-19T13:45:37.623Z,2.67
2022-11-19T13:50:42.097Z,2.47
2022-11-19T13:55:45.923Z,1.93
2022-11-19T14:01:13.105Z,2.60
2022-11-19T14:06:33.323Z,2.40
2022-11-19T14:12:03.017Z,2.90
2022-11-19T14:17:33.633Z,2.13
2022-11-19T14:23:00.534Z,1.90
2022-11-19T14:28:35.586Z,1.97
2022-11-19T14:33:59.998Z,1.90
2022-11-19T14:39:04.397Z,1.77
2022-11-19T14:44:26.567Z,1.70
2022-11-19T14:49:35.699Z,2.00
2022-11-19T14:54:41.305Z,1.90
2022-11-19T14:59:48.020Z,2.00
2022-11-19T15:04:56.464Z,1.80
2022-11-19T15:10:32.123Z,2.10
2022-11-19T15:15:38.834Z,2.20
2022-11-19T15:20:58.527Z,2.07
2022-11-19T15:26:08.406Z,2.97
2022-11-19T15:31:27.134Z,3.00
2022-11-19T15:36:32.945Z,3.37
2022-11-19T15:41:39.155Z,4.10
2022-11-19T15:46:46.605Z,4.37
2022-11-19T15:51:58.177Z,3.80
2022-11-19T15:57:03.916Z,5.40
2022-11-19T16:02:18.314Z,6.30
2022-11-19T16:07:25.928Z,5.73
2022-11-19T16:12:43.390Z,6.43
2022-11-19T16:17:48.612Z,5.90
2022-11-19T16:22:56.427Z,5.80
2022-11-19T16:28:01.877Z,3.63
2022-11-19T16:33:04.763Z,3.37
2022-11-19T16:38:13.488Z,3.73
2022-11-19T16:43:16.741Z,4.20
2022-11-19T16:48:59.246Z,4.43
2022-11-19T16:54:04.225Z,5.73
2022-11-19T16:59:07.436Z,4.33
2022-11-19T17:04:15.325Z,5.00
2022-11-19T17:09:41.470Z,4.43
2022-11-19T17:14:52.929Z,3.60
2022-11-19T17:19:56.452Z,3.70
2022-11-19T17:25:02.700Z,4.10
2022-11-19T17:30:10.436Z,4.63
2022-11-19T17:35:34.699Z,5.07
2022-11-19T17:40:45.688Z,4.63
2022-11-19T17:45:48.403Z,5.30
2022-11-19T17:50:52.251Z,5.20
2022-11-19T17:55:57.448Z,4.53
2022-11-19T18:01:00.175Z,5.13
2022-11-19T18:06:03.147Z,4.30
2022-11-19T18:11:07.779Z,4.33
2022-11-19T18:16:14.174Z,4.67
2022-11-19T18:21:18.472Z,4.73
2022-11-19T18:26:23.825Z,5.43
2022-11-19T18:31:28.359Z,4.93
2022-11-19T18:36:31.294Z,4.10
2022-11-19T18:41:35.497Z,5.40
2022-11-19T18:46:38.269Z,6.47
2022-11-19T18:51:42.330Z,6.40
2022-11-19T18:56:46.583Z,6.40
2022-11-19T19:01:49.485Z,6.10
2022-11-19T19:06:52.492Z,6.23
2022-11-19T19:12:14.363Z,5.97
2022-11-19T19:17:17.310Z,6.57
2022-11-19T19:22:20.578Z,7.20
2022-11-19T19:27:24.668Z,8.00
2022-11-19T19:32:27.518Z,10.83
2022-11-19T19:37:30.318Z,9.53
2022-11-19T19:42:39.843Z,11.83
2022-11-19T19:47:44.009Z,9.33
2022-11-19T19:52:47.464Z,10.47
2022-11-19T19:57:51.746Z,10.33
2022-11-19T20:02:54.536Z,10.87
2022-11-19T20:07:57.304Z,11.47
2022-11-19T20:13:18.822Z,11.50
2022-11-19T20:18:21.604Z,12.40
2022-11-19T20:23:24.333Z,12.27
2022-11-19T20:28:28.549Z,12.87
2022-11-19T20:33:31.456Z,14.63
2022-11-19T20:38:36.187Z,14.23
2022-11-19T20:43:57.400Z,12.70
2022-11-19T20:49:00.114Z,11.73
2022-11-19T20:54:03.090Z,10.03
2022-11-19T20:59:07.589Z,10.37
2022-11-19T21:04:11.516Z,9.67
2022-11-19T21:09:15.587Z,10.40
2022-11-19T21:14:19.740Z,8.30
2022-11-19T21:19:22.747Z,8.60
2022-11-19T21:24:25.848Z,7.67
2022-11-19T21:29:29.910Z,9.30
2022-11-19T21:34:33.788Z,9.13
2022-11-19T21:39:36.522Z,8.63
2022-11-19T21:44:41.175Z,8.17
2022-11-19T21:49:44.038Z,9.53
2022-11-19T21:54:46.766Z,7.37
2022-11-19T21:59:50.905Z,7.10
2022-11-19T22:04:53.600Z,6.97
2022-11-19T22:09:56.329Z,7.10
2022-11-19T22:15:00.336Z,7.33
2022-11-19T22:20:03.089Z,6.70
2022-11-19T22:25:06.409Z,8.30
2022-11-19T22:30:11.938Z,8.00
2022-11-19T22:35:14.730Z,7.80
2022-11-19T22:40:17.613Z,7.57
2022-11-19T22:45:21.688Z,7.57
2022-11-19T22:50:25.372Z,7.80
2022-11-19T22:55:28.237Z,7.90
2022-11-19T23:00:40.972Z,8.50
2022-11-19T23:05:47.178Z,8.30
2022-11-19T23:10:50.168Z,7.63
2022-11-19T23:16:05.891Z,8.70
2022-11-19T23:21:10.409Z,7.43
2022-11-19T23:26:14.666Z,6.57
2022-11-19T23:31:20.162Z,8.13
2022-11-19T23:36:24.179Z,7.63
2022-11-19T23:41:27.332Z,7.63
2022-11-19T23:46:32.748Z,7.27
2022-11-19T23:51:37.343Z,7.87
2022-11-19T23:56:40.149Z,8.93
